• Join FlightAware (Why Join?)
  • Login
  • US Flag 
12:02AM EDT


 

Airport Tracker/Info


-or-


 

Live Flight TrackerFlight Track Log ✈ FSR411 ✈ 26-Feb-2014 ✈ KCLT - KCMI

Flight Track Log - Related Links

Times and Time Zones

All times are in EST time to prevent confusion due to time zone crossing. See the FSR411 flight status page for this flight to view local times or setup timezone preferences in your user account.

Time Position Orientation Groundspeed Altitude Reporting Facility
EST Latitude Longitude Course Direction KTS MPH feet Rate Location/Type
03:20PM 35.2283 -80.9394 356° North 163 188 1,700  Level Atlanta Center
03:21PM 35.2869 -80.9447 356° North 237 273 5,000 3,120 Climbing Atlanta Center
03:22PM 35.3014 -81.0131 285° West 262 302 7,800 2,400 Climbing Atlanta Center
03:23PM 35.2819 -81.0747 249° West 258 297 9,000 2,820 Climbing Atlanta Center
03:23PM 35.2761 -81.0978 253° West 258 297 11,000 4,080 Climbing Atlanta Center
03:24PM 35.2608 -81.1517 251° West 283 326 13,100 1,860 Climbing Atlanta Center
03:25PM 35.2400 -81.2417 254° West 296 341 14,000 900 Climbing Atlanta Center
03:26PM 35.2169 -81.3314 253° West 285 328 15,000 2,760 Climbing Atlanta Center
03:28PM 35.1731 -81.5208 254° West 285 328 22,400 2,640 Climbing Atlanta Center
03:29PM 35.1458 -81.6283 253° West 301 346 23,000 600 Climbing Atlanta Center
03:30PM 35.1292 -81.7353 259° West 312 359 23,600 1,380 Climbing Atlanta Center
03:31PM 35.1231 -81.8525 266° West 334 384 25,800 2,220 Climbing Atlanta Center
03:32PM 35.1144 -81.9719 265° West 352 405 28,100 2,280 Climbing Atlanta Center
03:33PM 35.1061 -82.0889 265° West 352 405 30,400 2,160 Climbing Atlanta Center
03:34PM 35.0953 -82.2033 263° West 352 405 32,500 1,680 Climbing Atlanta Center
03:35PM 35.1072 -82.3072 278° West 323 372 33,800 720 Climbing Atlanta Center
03:36PM 35.1567 -82.4078 301° West 333 383 34,000 60 Climbing Atlanta Center
03:37PM 35.2122 -82.5111 303° West 338 389 34,000 600 Level Atlanta Center
03:38PM 35.2550 -82.5967 301° West 345 397 35,200 1,200 Climbing Atlanta Center
03:39PM 35.3061 -82.6925 303° West 345 397 36,400 1,080 Climbing Atlanta Center
03:40PM 35.3553 -82.7936 301° West 340 391 37,400 960 Climbing Atlanta Center
03:41PM 35.4061 -82.8897 303° West 340 391 38,400 900 Climbing Atlanta Center
03:42PM 35.4550 -82.9933 300° West 340 391 39,300 780 Climbing Atlanta Center
03:43PM 35.5142 -83.0869 308° West 345 397 40,000 300 Climbing Atlanta Center
03:44PM 35.5900 -83.1678 319° Northwest 357 411 40,000  Level Atlanta Center
03:45PM 35.6697 -83.2514 320° Northwest 370 426 40,000  Level Atlanta Center
03:46PM 35.7497 -83.3350 320° Northwest 377 434 40,000  Level Atlanta Center
03:47PM 35.8294 -83.4189 320° Northwest 377 434 40,000  Level Atlanta Center
03:48PM 35.9069 -83.5031 319° Northwest 377 434 40,000  Level Atlanta Center
03:49PM 35.9844 -83.5872 319° Northwest 377 434 40,000  Level Atlanta Center
03:50PM 36.1097 -83.7183 320° Northwest 371 427 40,000  Level Indianapolis Center
03:52PM 36.1861 -83.8006 319° Northwest 368 423 40,000  Level Indianapolis Center
03:53PM 36.2636 -83.8847 319° Northwest 368 423 40,000  Level Indianapolis Center
03:54PM 36.3403 -83.9678 319° Northwest 368 423 40,000  Level Indianapolis Center
03:55PM 36.4322 -84.0675 319° Northwest 368 423 40,000  Level Indianapolis Center
03:56PM 36.5094 -84.1517 319° Northwest 368 423 40,000  Level Indianapolis Center
03:57PM 36.5828 -84.2322 319° Northwest 368 423 40,000  Level Indianapolis Center
03:58PM 36.6594 -84.3164 319° Northwest 368 423 40,000  Level Indianapolis Center
03:59PM 36.7494 -84.4150 319° Northwest 368 423 40,000  Level Indianapolis Center
04:00PM 36.8272 -84.5008 319° Northwest 368 423 40,000  Level Indianapolis Center
04:01PM 36.9086 -84.5919 318° Northwest 369 425 40,000  Level Indianapolis Center
04:02PM 36.9858 -84.6769 319° Northwest 370 426 40,000  Level Indianapolis Center
04:03PM 37.0608 -84.7614 318° Northwest 371 427 40,000  Level Indianapolis Center
04:04PM 37.1392 -84.8475 319° Northwest 371 427 40,000  Level Indianapolis Center
04:05PM 37.2292 -84.9497 318° Northwest 372 428 40,000  Level Indianapolis Center
04:06PM 37.3075 -85.0369 318° Northwest 373 429 40,000  Level Indianapolis Center
04:07PM 37.3853 -85.1244 318° Northwest 373 429 40,000  Level Indianapolis Center
04:08PM 37.4625 -85.2111 318° Northwest 373 429 40,000  Level Indianapolis Center
04:09PM 37.5394 -85.3000 318° Northwest 373 429 40,000  Level Indianapolis Center
04:10PM 37.6328 -85.4006 320° Northwest 375 432 40,000  Level Indianapolis Center
04:11PM 37.7100 -85.4878 318° Northwest 375 432 40,000  Level Indianapolis Center
04:12PM 37.7878 -85.5814 316° Northwest 374 430 40,000  Level Indianapolis Center
04:13PM 37.8661 -85.6692 319° Northwest 373 429 40,000  Level Indianapolis Center
04:14PM 37.9417 -85.7578 317° Northwest 374 430 40,000  Level Indianapolis Center
04:15PM 38.0181 -85.8478 317° Northwest 373 429 40,000  Level Indianapolis Center
04:16PM 38.0958 -85.9375 318° Northwest 375 432 40,000  Level Indianapolis Center
04:17PM 38.1744 -86.0272 318° Northwest 376 433 40,000  Level Indianapolis Center
04:18PM 38.2506 -86.1161 317° Northwest 375 432 40,000 -240 Level Indianapolis Center
04:19PM 38.3433 -86.2244 318° Northwest 375 432 39,600 -840 Descending Indianapolis Center
04:21PM 38.4197 -86.3136 318° Northwest 375 432 38,300 -1,380 Descending Indianapolis Center
04:22PM 38.4972 -86.4042 318° Northwest 375 432 36,800 -1,500 Descending Indianapolis Center
04:23PM 38.5747 -86.4967 317° Northwest 376 433 35,300 -1,500 Descending Indianapolis Center
04:24PM 38.6511 -86.5869 317° Northwest 378 435 33,800 -1,440 Descending Indianapolis Center
04:25PM 38.7261 -86.6761 317° Northwest 371 427 32,300 -1,620 Descending Indianapolis Center
04:26PM 38.8169 -86.7847 317° Northwest 371 427 30,500 -1,620 Descending Indianapolis Center
04:27PM 38.8953 -86.8767 318° Northwest 375 432 29,000 -1,500 Descending Indianapolis Center
04:28PM 38.9739 -86.9708 317° Northwest 380 437 27,400 -1,680 Descending Indianapolis Center
04:29PM 39.0531 -87.0656 317° Northwest 383 441 25,600 -1,860 Descending Indianapolis Center
04:30PM 39.1358 -87.1667 317° Northwest 384 442 23,600 -1,800 Descending Indianapolis Center
04:31PM 39.2111 -87.2556 318° Northwest 374 430 21,900 -1,740 Descending Indianapolis Center
04:32PM 39.2831 -87.3442 316° Northwest 362 417 20,100 -1,800 Descending Indianapolis Center
04:33PM 39.3564 -87.4344 316° Northwest 362 417 18,300 -1,860 Descending Indianapolis Center
04:34PM 39.4411 -87.5367 317° Northwest 352 405 16,300 -2,040 Descending Indianapolis Center
04:35PM 39.5092 -87.6208 316° Northwest 342 394 14,200 -1,980 Descending Indianapolis Center
04:36PM 39.5742 -87.7006 317° Northwest 328 377 12,200 -1,440 Descending Indianapolis Center
04:37PM 39.6378 -87.7772 317° Northwest 317 365 11,200 -1,260 Descending Indianapolis Center
04:38PM 39.6922 -87.8458 316° Northwest 283 326 9,700 -1,680 Descending Indianapolis Center
04:39PM 39.7408 -87.9042 317° Northwest 249 287 7,800 -1,980 Descending Indianapolis Center
04:40PM 39.7900 -87.9594 319° Northwest 237 273 5,700 -2,040 Descending Indianapolis Center
04:42PM 39.8552 -88.0647 309° West  Level FlightAware Approximate
04:49PM 40.0333 -88.2667 90° East  Level FlightAware Approximate
04:50PM 40.0388 -88.2778 90° East  Level Estimated
04:51PM 40.0388 -88.2778 90° East  Level Estimated
04:52PM 40.0388 -88.2778 90° East  Level Estimated
04:53PM 40.0388 -88.2778 90° East  Level Estimated
04:54PM 40.0388 -88.2778 90° East  Level Estimated